sensor_id;sensor_type;location;lat;lon;timestamp;pressure;altitude;pressure_sealevel;temperature;humidity
62655;BME280;48717;55.556;37.816;2023-04-25T00:01:05;99275.16;;;11.28;46.49
62655;BME280;48717;55.556;37.816;2023-04-25T00:03:32;99298.69;;;11.45;46.94
62655;BME280;48717;55.556;37.816;2023-04-25T00:06:00;99292.44;;;11.51;47.42
62655;BME280;48717;55.556;37.816;2023-04-25T00:08:30;99277.75;;;11.32;47.30
62655;BME280;48717;55.556;37.816;2023-04-25T00:10:57;99303.00;;;11.51;47.64
62655;BME280;48717;55.556;37.816;2023-04-25T00:13:25;99270.66;;;11.36;47.73
62655;BME280;48717;55.556;37.816;2023-04-25T00:15:53;99301.19;;;11.56;48.16
62655;BME280;48717;55.556;37.816;2023-04-25T00:18:20;99297.69;;;11.54;49.61
62655;BME280;48717;55.556;37.816;2023-04-25T00:20:47;99282.09;;;11.35;49.91
62655;BME280;48717;55.556;37.816;2023-04-25T00:23:16;99279.53;;;11.29;50.46
62655;BME280;48717;55.556;37.816;2023-04-25T00:25:45;99276.88;;;11.29;50.78
62655;BME280;48717;55.556;37.816;2023-04-25T00:28:13;99276.88;;;11.29;51.39
62655;BME280;48717;55.556;37.816;2023-04-25T00:30:43;99270.75;;;11.30;51.03
62655;BME280;48717;55.556;37.816;2023-04-25T00:33:10;99287.31;;;11.40;51.10
62655;BME280;48717;55.556;37.816;2023-04-25T00:35:37;99290.84;;;11.40;51.52
62655;BME280;48717;55.556;37.816;2023-04-25T00:38:05;99280.31;;;11.37;51.76
62655;BME280;48717;55.556;37.816;2023-04-25T00:40:32;99275.81;;;11.44;51.43
62655;BME280;48717;55.556;37.816;2023-04-25T00:42:59;99291.59;;;11.48;52.14
62655;BME280;48717;55.556;37.816;2023-04-25T00:45:28;99266.03;;;11.51;51.85
62655;BME280;48717;55.556;37.816;2023-04-25T00:47:57;99250.28;;;11.47;51.22
62655;BME280;48717;55.556;37.816;2023-04-25T00:50:24;99270.38;;;11.55;51.97
62655;BME280;48717;55.556;37.816;2023-04-25T00:52:51;99262.53;;;11.52;51.27
62655;BME280;48717;55.556;37.816;2023-04-25T00:55:19;99262.53;;;11.52;51.31
62655;BME280;48717;55.556;37.816;2023-04-25T00:57:46;99259.81;;;11.56;51.60
62655;BME280;48717;55.556;37.816;2023-04-25T01:00:14;99249.28;;;11.53;51.63
62655;BME280;48717;55.556;37.816;2023-04-25T01:02:43;99265.88;;;11.65;51.41
62655;BME280;48717;55.556;37.816;2023-04-25T01:05:11;99229.84;;;11.60;50.08
62655;BME280;48717;55.556;37.816;2023-04-25T01:07:40;99251.59;;;11.77;50.22
62655;BME280;48717;55.556;37.816;2023-04-25T01:10:08;99250.63;;;11.84;49.94
62655;BME280;48717;55.556;37.816;2023-04-25T01:12:37;99242.78;;;11.78;50.33
62655;BME280;48717;55.556;37.816;2023-04-25T01:15:04;99244.53;;;11.79;50.32
62655;BME280;48717;55.556;37.816;2023-04-25T01:17:34;99247.25;;;11.72;49.94
62655;BME280;48717;55.556;37.816;2023-04-25T01:20:05;99249.97;;;11.69;50.13
62655;BME280;48717;55.556;37.816;2023-04-25T01:22:33;99213.19;;;11.57;49.13
62655;BME280;48717;55.556;37.816;2023-04-25T01:25:00;99251.44;;;11.86;48.57
62655;BME280;48717;55.556;37.816;2023-04-25T01:27:29;99239.94;;;11.92;48.62
62655;BME280;48717;55.556;37.816;2023-04-25T01:29:57;99226.53;;;12.02;47.70
62655;BME280;48717;55.556;37.816;2023-04-25T01:32:26;99231.69;;;12.12;47.43
62655;BME280;48717;55.556;37.816;2023-04-25T01:34:54;99203.63;;;12.05;46.89
62655;BME280;48717;55.556;37.816;2023-04-25T01:37:22;99198.34;;;12.05;46.65
62655;BME280;48717;55.556;37.816;2023-04-25T01:39:49;99222.78;;;12.19;47.24
62655;BME280;48717;55.556;37.816;2023-04-25T01:42:17;99213.94;;;12.20;47.04
62655;BME280;48717;55.556;37.816;2023-04-25T01:44:44;99219.03;;;12.33;45.72
62655;BME280;48717;55.556;37.816;2023-04-25T01:47:12;99232.97;;;12.41;44.95
62655;BME280;48717;55.556;37.816;2023-04-25T01:49:39;99222.28;;;12.47;45.04
62655;BME280;48717;55.556;37.816;2023-04-25T01:52:06;99225.78;;;12.49;46.46
62655;BME280;48717;55.556;37.816;2023-04-25T01:54:34;99225.06;;;12.41;46.05
62655;BME280;48717;55.556;37.816;2023-04-25T01:57:02;99237.41;;;12.39;45.60
62655;BME280;48717;55.556;37.816;2023-04-25T01:59:32;99240.06;;;12.39;45.45
62655;BME280;48717;55.556;37.816;2023-04-25T02:02:06;99222.66;;;12.25;45.43
62655;BME280;48717;55.556;37.816;2023-04-25T02:04:35;99232.25;;;12.33;45.59
62655;BME280;48717;55.556;37.816;2023-04-25T02:07:03;99237.56;;;12.31;46.87
62655;BME280;48717;55.556;37.816;2023-04-25T02:09:43;99217.69;;;12.08;47.08
62655;BME280;48717;55.556;37.816;2023-04-25T02:12:11;99226.53;;;12.02;47.95
62655;BME280;48717;55.556;37.816;2023-04-25T02:14:57;99246.91;;;11.96;48.82
62655;BME280;48717;55.556;37.816;2023-04-25T02:17:41;99241.03;;;11.77;50.09
62655;BME280;48717;55.556;37.816;2023-04-25T02:20:08;99235.94;;;11.64;50.36
62655;BME280;48717;55.556;37.816;2023-04-25T02:22:39;99246.66;;;11.53;51.17
62655;BME280;48717;55.556;37.816;2023-04-25T02:25:06;99214.47;;;11.26;51.83
62655;BME280;48717;55.556;37.816;2023-04-25T02:27:33;99253.88;;;11.40;52.72
62655;BME280;48717;55.556;37.816;2023-04-25T02:30:01;99252.31;;;11.23;53.16
62655;BME280;48717;55.556;37.816;2023-04-25T02:32:30;99234.84;;;11.16;53.09
62655;BME280;48717;55.556;37.816;2023-04-25T02:34:57;99203.50;;;10.91;53.41
62655;BME280;48717;55.556;37.816;2023-04-25T02:37:30;99257.75;;;11.11;54.59
62655;BME280;48717;55.556;37.816;2023-04-25T02:39:57;99240.31;;;10.97;54.77
62655;BME280;48717;55.556;37.816;2023-04-25T02:42:26;99231.59;;;10.92;54.71
62655;BME280;48717;55.556;37.816;2023-04-25T02:44:56;99258.75;;;11.01;55.26
62655;BME280;48717;55.556;37.816;2023-04-25T02:47:24;99243.97;;;10.87;55.82
62655;BME280;48717;55.556;37.816;2023-04-25T02:49:51;99251.88;;;10.90;56.46
62655;BME280;48717;55.556;37.816;2023-04-25T02:52:18;99257.13;;;10.92;55.84
62655;BME280;48717;55.556;37.816;2023-04-25T02:54:52;99238.81;;;10.78;56.50
62655;BME280;48717;55.556;37.816;2023-04-25T02:57:19;99257.13;;;10.92;56.10
62655;BME280;48717;55.556;37.816;2023-04-25T02:59:47;99266.75;;;10.94;56.41
62655;BME280;48717;55.556;37.816;2023-04-25T03:02:14;99267.63;;;10.93;56.48
62655;BME280;48717;55.556;37.816;2023-04-25T03:04:41;99270.31;;;10.90;57.51
62655;BME280;48717;55.556;37.816;2023-04-25T03:07:09;99271.16;;;10.92;57.03
62655;BME280;48717;55.556;37.816;2023-04-25T03:09:36;99262.44;;;10.86;57.56
62655;BME280;48717;55.556;37.816;2023-04-25T03:12:04;99263.25;;;10.92;57.21
62655;BME280;48717;55.556;37.816;2023-04-25T03:14:34;99271.97;;;10.97;57.91
62655;BME280;48717;55.556;37.816;2023-04-25T03:17:01;99265.75;;;11.05;57.30
62655;BME280;48717;55.556;37.816;2023-04-25T03:19:28;99259.63;;;11.03;57.10
62655;BME280;48717;55.556;37.816;2023-04-25T03:21:55;99276.19;;;11.14;58.09
62655;BME280;48717;55.556;37.816;2023-04-25T03:24:22;99235.00;;;11.04;57.09
62655;BME280;48717;55.556;37.816;2023-04-25T03:26:50;99257.56;;;11.27;57.46
62655;BME280;48717;55.556;37.816;2023-04-25T03:29:17;99249.63;;;11.30;57.55
62655;BME280;48717;55.556;37.816;2023-04-25T03:31:46;99247.69;;;11.41;56.75
62655;BME280;48717;55.556;37.816;2023-04-25T03:34:13;99273.94;;;11.52;56.95
62655;BME280;48717;55.556;37.816;2023-04-25T03:36:41;99234.50;;;11.41;56.35
62655;BME280;48717;55.556;37.816;2023-04-25T03:39:10;99276.28;;;11.75;56.58
62655;BME280;48717;55.556;37.816;2023-04-25T03:41:38;99259.47;;;11.80;56.14
62655;BME280;48717;55.556;37.816;2023-04-25T03:44:11;99250.66;;;11.81;55.70
62655;BME280;48717;55.556;37.816;2023-04-25T03:46:39;99246.13;;;11.89;55.82
62655;BME280;48717;55.556;37.816;2023-04-25T03:49:06;99259.97;;;12.07;55.16
62655;BME280;48717;55.556;37.816;2023-04-25T03:51:56;99260.78;;;12.12;55.07
62655;BME280;48717;55.556;37.816;2023-04-25T03:54:23;99226.81;;;11.87;55.47
62655;BME280;48717;55.556;37.816;2023-04-25T03:57:10;99251.19;;;12.05;55.13
62655;BME280;48717;55.556;37.816;2023-04-25T03:59:39;99258.13;;;12.12;54.96
62655;BME280;48717;55.556;37.816;2023-04-25T04:02:09;99265.94;;;12.20;55.40
62655;BME280;48717;55.556;37.816;2023-04-25T04:04:37;99243.13;;;12.14;55.14
62655;BME280;48717;55.556;37.816;2023-04-25T04:07:05;99245.41;;;12.36;54.65
62655;BME280;48717;55.556;37.816;2023-04-25T04:09:35;99252.09;;;12.56;53.77
62655;BME280;48717;55.556;37.816;2023-04-25T04:12:07;99237.69;;;12.72;53.01
62655;BME280;48717;55.556;37.816;2023-04-25T04:14:37;99237.13;;;13.00;52.05
62655;BME280;48717;55.556;37.816;2023-04-25T04:17:04;99256.94;;;13.25;51.68
62655;BME280;48717;55.556;37.816;2023-04-25T04:19:33;99254.69;;;13.04;52.62
62655;BME280;48717;55.556;37.816;2023-04-25T04:22:13;99253.72;;;13.10;52.29
62655;BME280;48717;55.556;37.816;2023-04-25T04:24:40;99262.41;;;13.17;52.49
62655;BME280;48717;55.556;37.816;2023-04-25T04:27:12;99245.84;;;13.05;52.41
62655;BME280;48717;55.556;37.816;2023-04-25T04:29:58;99246.88;;;13.41;51.39
62655;BME280;48717;55.556;37.816;2023-04-25T04:32:33;99254.78;;;13.85;50.48
62655;BME280;48717;55.556;37.816;2023-04-25T04:35:03;99252.88;;;14.27;48.83
62655;BME280;48717;55.556;37.816;2023-04-25T04:37:32;99232.72;;;14.54;48.58
62655;BME280;48717;55.556;37.816;2023-04-25T04:40:01;99250.88;;;15.03;47.31
62655;BME280;48717;55.556;37.816;2023-04-25T04:42:44;99248.47;;;15.25;45.86
62655;BME280;48717;55.556;37.816;2023-04-25T04:45:23;99261.22;;;15.44;46.37
62655;BME280;48717;55.556;37.816;2023-04-25T04:48:29;99248.75;;;15.75;45.51
62655;BME280;48717;55.556;37.816;2023-04-25T04:51:17;99248.69;;;16.07;44.23
62655;BME280;48717;55.556;37.816;2023-04-25T04:53:53;99250.19;;;16.41;43.47
62655;BME280;48717;55.556;37.816;2023-04-25T04:56:54;99237.72;;;16.68;42.75
62655;BME280;48717;55.556;37.816;2023-04-25T04:59:37;99200.69;;;16.62;42.51
62655;BME280;48717;55.556;37.816;2023-04-25T05:02:21;99223.47;;;16.95;41.66
62655;BME280;48717;55.556;37.816;2023-04-25T05:05:10;99240.69;;;17.10;41.40
62655;BME280;48717;55.556;37.816;2023-04-25T05:07:59;99195.72;;;17.01;41.10
62655;BME280;48717;55.556;37.816;2023-04-25T05:10:46;99238.00;;;17.58;40.52
62655;BME280;48717;55.556;37.816;2023-04-25T05:13:32;99239.25;;;17.94;39.65
62655;BME280;48717;55.556;37.816;2023-04-25T05:16:00;99244.66;;;17.92;39.27
62655;BME280;48717;55.556;37.816;2023-04-25T05:18:47;99237.78;;;18.09;39.42
62655;BME280;48717;55.556;37.816;2023-04-25T05:21:26;99228.16;;;18.48;38.34
62655;BME280;48717;55.556;37.816;2023-04-25T05:24:14;99232.34;;;18.53;38.42
62655;BME280;48717;55.556;37.816;2023-04-25T05:27:16;99236.09;;;18.49;38.16
62655;BME280;48717;55.556;37.816;2023-04-25T05:30:05;99207.38;;;18.13;38.43
62655;BME280;48717;55.556;37.816;2023-04-25T05:32:55;99243.13;;;18.09;38.42
62655;BME280;48717;55.556;37.816;2023-04-25T05:35:23;99235.38;;;18.46;38.41
62655;BME280;48717;55.556;37.816;2023-04-25T05:37:50;99220.44;;;18.82;37.29
62655;BME280;48717;55.556;37.816;2023-04-25T05:40:20;99220.69;;;19.17;36.74
62655;BME280;48717;55.556;37.816;2023-04-25T05:42:58;99222.22;;;19.42;36.52
62655;BME280;48717;55.556;37.816;2023-04-25T05:45:42;99197.22;;;19.43;35.46
62655;BME280;48717;55.556;37.816;2023-04-25T05:48:30;99220.22;;;19.84;34.98
62655;BME280;48717;55.556;37.816;2023-04-25T05:51:20;99215.41;;;20.10;34.19
62655;BME280;48717;55.556;37.816;2023-04-25T05:54:10;99209.47;;;20.39;33.58
62655;BME280;48717;55.556;37.816;2023-04-25T05:56:38;99213.19;;;20.54;33.75
62655;BME280;48717;55.556;37.816;2023-04-25T05:59:05;99194.44;;;20.54;33.65
62655;BME280;48717;55.556;37.816;2023-04-25T06:01:32;99189.75;;;20.93;33.16
62655;BME280;48717;55.556;37.816;2023-04-25T06:04:00;99189.34;;;21.17;32.49
62655;BME280;48717;55.556;37.816;2023-04-25T06:06:27;99180.72;;;21.11;32.45
62655;BME280;48717;55.556;37.816;2023-04-25T06:08:54;99172.88;;;20.91;32.44
62655;BME280;48717;55.556;37.816;2023-04-25T06:11:22;99165.22;;;21.17;32.51
62655;BME280;48717;55.556;37.816;2023-04-25T06:13:50;99178.81;;;21.62;31.52
62655;BME280;48717;55.556;37.816;2023-04-25T06:16:17;99160.63;;;21.83;30.74
62655;BME280;48717;55.556;37.816;2023-04-25T06:18:45;99153.94;;;22.21;30.14
62655;BME280;48717;55.556;37.816;2023-04-25T06:21:12;99159.81;;;22.28;29.15
62655;BME280;48717;55.556;37.816;2023-04-25T06:23:40;99151.16;;;22.23;29.53
62655;BME280;48717;55.556;37.816;2023-04-25T06:26:10;99162.56;;;22.72;28.95
62655;BME280;48717;55.556;37.816;2023-04-25T06:28:41;99144.34;;;22.77;28.85
62655;BME280;48717;55.556;37.816;2023-04-25T06:31:08;99138.00;;;22.78;28.06
62655;BME280;48717;55.556;37.816;2023-04-25T06:33:36;99116.31;;;22.66;27.22
62655;BME280;48717;55.556;37.816;2023-04-25T06:36:03;99171.69;;;23.13;26.93
62655;BME280;48717;55.556;37.816;2023-04-25T06:38:31;99165.41;;;23.41;26.73
62655;BME280;48717;55.556;37.816;2023-04-25T06:40:58;99159.69;;;23.60;26.61
62655;BME280;48717;55.556;37.816;2023-04-25T06:43:29;99167.81;;;23.73;26.51
62655;BME280;48717;55.556;37.816;2023-04-25T06:46:22;99139.72;;;23.78;26.47
62655;BME280;48717;55.556;37.816;2023-04-25T06:48:50;99162.16;;;24.04;26.36
62655;BME280;48717;55.556;37.816;2023-04-25T06:51:19;99161.59;;;24.27;26.13
62655;BME280;48717;55.556;37.816;2023-04-25T06:53:51;99168.22;;;24.08;26.07
62655;BME280;48717;55.556;37.816;2023-04-25T06:56:28;99157.19;;;23.85;25.76
62655;BME280;48717;55.556;37.816;2023-04-25T06:59:12;99166.84;;;23.75;26.09
62655;BME280;48717;55.556;37.816;2023-04-25T07:01:40;99150.06;;;23.84;25.95
62655;BME280;48717;55.556;37.816;2023-04-25T07:04:14;99145.25;;;24.30;25.26
62655;BME280;48717;55.556;37.816;2023-04-25T07:06:47;99168.94;;;24.50;24.95
62655;BME280;48717;55.556;37.816;2023-04-25T07:09:20;99163.16;;;24.83;24.59
62655;BME280;48717;55.556;37.816;2023-04-25T07:11:49;99165.28;;;25.03;24.00
62655;BME280;48717;55.556;37.816;2023-04-25T07:14:16;99162.28;;;24.82;23.98
62655;BME280;48717;55.556;37.816;2023-04-25T07:16:44;99174.88;;;24.69;24.47
62655;BME280;48717;55.556;37.816;2023-04-25T07:19:12;99161.31;;;24.44;24.76
62655;BME280;48717;55.556;37.816;2023-04-25T07:21:39;99175.75;;;24.43;25.04
62655;BME280;48717;55.556;37.816;2023-04-25T07:24:06;99153.91;;;23.80;25.62
62655;BME280;48717;55.556;37.816;2023-04-25T07:26:38;99164.97;;;24.43;25.25
62655;BME280;48717;55.556;37.816;2023-04-25T07:29:23;99151.81;;;24.38;24.91
62655;BME280;48717;55.556;37.816;2023-04-25T07:31:51;99165.50;;;24.48;24.17
62655;BME280;48717;55.556;37.816;2023-04-25T07:34:20;99155.03;;;24.31;24.39
62655;BME280;48717;55.556;37.816;2023-04-25T07:36:48;99168.31;;;24.60;24.39
62655;BME280;48717;55.556;37.816;2023-04-25T07:39:15;99161.63;;;24.79;23.96
62655;BME280;48717;55.556;37.816;2023-04-25T07:41:43;99163.81;;;24.86;23.38
62655;BME280;48717;55.556;37.816;2023-04-25T07:44:16;99177.25;;;24.73;23.51
62655;BME280;48717;55.556;37.816;2023-04-25T07:46:44;99178.13;;;24.61;23.73
62655;BME280;48717;55.556;37.816;2023-04-25T07:49:11;99161.22;;;24.72;24.32
62655;BME280;48717;55.556;37.816;2023-04-25T07:51:41;99161.53;;;24.93;24.15
62655;BME280;48717;55.556;37.816;2023-04-25T07:54:14;99165.91;;;25.20;23.80
62655;BME280;48717;55.556;37.816;2023-04-25T07:56:46;99162.94;;;24.99;23.54
62655;BME280;48717;55.556;37.816;2023-04-25T07:59:22;99160.97;;;24.23;24.75
62655;BME280;48717;55.556;37.816;2023-04-25T08:01:50;99159.00;;;23.57;25.90
62655;BME280;48717;55.556;37.816;2023-04-25T08:04:19;99143.44;;;23.34;26.79
62655;BME280;48717;55.556;37.816;2023-04-25T08:06:57;99143.16;;;22.95;27.04
62655;BME280;48717;55.556;37.816;2023-04-25T08:09:28;99168.34;;;22.65;28.04
62655;BME280;48717;55.556;37.816;2023-04-25T08:11:56;99162.28;;;22.62;27.70
62655;BME280;48717;55.556;37.816;2023-04-25T08:14:29;99169.19;;;22.21;28.05
62655;BME280;48717;55.556;37.816;2023-04-25T08:17:04;99167.03;;;21.64;28.67
62655;BME280;48717;55.556;37.816;2023-04-25T08:19:34;99152.94;;;21.77;28.97
62655;BME280;48717;55.556;37.816;2023-04-25T08:22:02;99153.78;;;22.53;28.07
62655;BME280;48717;55.556;37.816;2023-04-25T08:24:41;99130.00;;;23.05;26.46
62655;BME280;48717;55.556;37.816;2023-04-25T08:27:08;99155.78;;;23.23;26.65
62655;BME280;48717;55.556;37.816;2023-04-25T08:29:36;99134.06;;;23.40;26.02
62655;BME280;48717;55.556;37.816;2023-04-25T08:32:03;99136.56;;;23.71;24.57
62655;BME280;48717;55.556;37.816;2023-04-25T08:34:33;99134.59;;;24.01;24.28
62655;BME280;48717;55.556;37.816;2023-04-25T08:37:03;99107.09;;;24.23;23.94
62655;BME280;48717;55.556;37.816;2023-04-25T08:39:43;99123.69;;;24.30;23.80
62655;BME280;48717;55.556;37.816;2023-04-25T08:42:33;99125.19;;;24.86;23.36
62655;BME280;48717;55.556;37.816;2023-04-25T08:45:03;99129.50;;;24.49;23.05
62655;BME280;48717;55.556;37.816;2023-04-25T08:47:38;99134.81;;;23.97;23.59
62655;BME280;48717;55.556;37.816;2023-04-25T08:50:07;99128.53;;;23.84;23.97
62655;BME280;48717;55.556;37.816;2023-04-25T08:52:37;99127.59;;;23.85;24.12
62655;BME280;48717;55.556;37.816;2023-04-25T08:55:08;99122.38;;;23.41;24.17
62655;BME280;48717;55.556;37.816;2023-04-25T08:57:37;99113.53;;;23.39;24.04
62655;BME280;48717;55.556;37.816;2023-04-25T09:00:05;99118.41;;;23.32;23.55
62655;BME280;48717;55.556;37.816;2023-04-25T09:02:35;99119.81;;;23.80;24.05
62655;BME280;48717;55.556;37.816;2023-04-25T09:05:03;99119.38;;;24.27;23.57
62655;BME280;48717;55.556;37.816;2023-04-25T09:07:31;99109.66;;;24.24;23.19
62655;BME280;48717;55.556;37.816;2023-04-25T09:09:58;99082.09;;;24.21;23.13
62655;BME280;48717;55.556;37.816;2023-04-25T09:12:34;99086.06;;;24.41;23.00
62655;BME280;48717;55.556;37.816;2023-04-25T09:15:06;99105.50;;;24.20;23.08
62655;BME280;48717;55.556;37.816;2023-04-25T09:17:58;99104.44;;;23.95;23.60
62655;BME280;48717;55.556;37.816;2023-04-25T09:20:31;99101.84;;;24.07;23.42
62655;BME280;48717;55.556;37.816;2023-04-25T09:23:05;99060.88;;;23.63;23.38
62655;BME280;48717;55.556;37.816;2023-04-25T09:25:37;99078.84;;;24.29;22.89
62655;BME280;48717;55.556;37.816;2023-04-25T09:28:09;99083.56;;;23.99;22.81
62655;BME280;48717;55.556;37.816;2023-04-25T09:30:36;99071.63;;;23.50;23.37
62655;BME280;48717;55.556;37.816;2023-04-25T09:33:14;99092.88;;;23.67;23.79
62655;BME280;48717;55.556;37.816;2023-04-25T09:35:47;99088.03;;;24.13;23.20
62655;BME280;48717;55.556;37.816;2023-04-25T09:38:44;99072.81;;;24.38;22.49
62655;BME280;48717;55.556;37.816;2023-04-25T09:41:24;99081.44;;;24.69;22.19
62655;BME280;48717;55.556;37.816;2023-04-25T09:43:56;99078.63;;;24.84;22.28
62655;BME280;48717;55.556;37.816;2023-04-25T09:46:33;99078.53;;;24.33;23.06
62655;BME280;48717;55.556;37.816;2023-04-25T09:49:08;99056.38;;;23.63;23.79
62655;BME280;48717;55.556;37.816;2023-04-25T09:51:56;99057.88;;;23.12;24.66
62655;BME280;48717;55.556;37.816;2023-04-25T09:54:28;99053.53;;;22.97;24.94
62655;BME280;48717;55.556;37.816;2023-04-25T09:57:14;99061.13;;;23.17;25.01
62655;BME280;48717;55.556;37.816;2023-04-25T09:59:52;99053.97;;;23.45;24.41
62655;BME280;48717;55.556;37.816;2023-04-25T10:02:23;99054.94;;;24.11;23.75
62655;BME280;48717;55.556;37.816;2023-04-25T10:04:54;99048.97;;;24.84;22.89
62655;BME280;48717;55.556;37.816;2023-04-25T10:07:31;99051.66;;;25.81;21.44
62655;BME280;48717;55.556;37.816;2023-04-25T10:10:01;99060.63;;;26.29;20.91
62655;BME280;48717;55.556;37.816;2023-04-25T10:12:35;99051.75;;;26.27;20.33
62655;BME280;48717;55.556;37.816;2023-04-25T10:15:03;99049.31;;;26.36;20.15
62655;BME280;48717;55.556;37.816;2023-04-25T10:17:33;99041.22;;;26.47;20.11
62655;BME280;48717;55.556;37.816;2023-04-25T10:20:02;99041.94;;;26.72;19.79
62655;BME280;48717;55.556;37.816;2023-04-25T10:22:37;99038.44;;;27.04;20.13
62655;BME280;48717;55.556;37.816;2023-04-25T10:25:06;99029.28;;;27.28;19.44
62655;BME280;48717;55.556;37.816;2023-04-25T10:27:35;99015.13;;;27.57;19.06
62655;BME280;48717;55.556;37.816;2023-04-25T10:30:07;99010.13;;;28.17;18.62
62655;BME280;48717;55.556;37.816;2023-04-25T10:32:38;99028.34;;;28.36;18.25
62655;BME280;48717;55.556;37.816;2023-04-25T10:35:19;99009.19;;;28.06;17.65
62655;BME280;48717;55.556;37.816;2023-04-25T10:38:03;99019.31;;;26.73;18.97
62655;BME280;48717;55.556;37.816;2023-04-25T10:40:32;99019.09;;;26.42;19.51
62655;BME280;48717;55.556;37.816;2023-04-25T10:45:59;99014.38;;;26.90;19.21
62655;BME280;48717;55.556;37.816;2023-04-25T10:48:30;99007.44;;;26.30;19.32
62655;BME280;48717;55.556;37.816;2023-04-25T10:51:11;99014.25;;;25.28;21.14
62655;BME280;48717;55.556;37.816;2023-04-25T10:53:39;98999.34;;;24.73;21.94
62655;BME280;48717;55.556;37.816;2023-04-25T10:56:16;98983.84;;;24.01;23.02
62655;BME280;48717;55.556;37.816;2023-04-25T10:58:45;99006.78;;;24.32;22.99
62655;BME280;48717;55.556;37.816;2023-04-25T11:01:15;99002.94;;;24.87;22.43
62655;BME280;48717;55.556;37.816;2023-04-25T11:03:46;98994.19;;;25.08;22.41
62655;BME280;48717;55.556;37.816;2023-04-25T11:06:29;99004.63;;;25.37;22.10
62655;BME280;48717;55.556;37.816;2023-04-25T11:09:01;98966.47;;;25.30;22.30
62655;BME280;48717;55.556;37.816;2023-04-25T11:11:29;98985.06;;;25.58;21.63
62655;BME280;48717;55.556;37.816;2023-04-25T11:13:57;98971.19;;;24.90;22.75
62655;BME280;48717;55.556;37.816;2023-04-25T11:16:25;98981.69;;;24.32;23.26
62655;BME280;48717;55.556;37.816;2023-04-25T11:18:57;98973.47;;;23.55;24.22
62655;BME280;48717;55.556;37.816;2023-04-25T11:21:27;98995.84;;;23.43;24.56
62655;BME280;48717;55.556;37.816;2023-04-25T11:23:56;98965.63;;;23.65;24.38
62655;BME280;48717;55.556;37.816;2023-04-25T11:26:24;98973.06;;;24.27;23.68
62655;BME280;48717;55.556;37.816;2023-04-25T11:28:51;98978.03;;;24.20;23.70
62655;BME280;48717;55.556;37.816;2023-04-25T11:31:22;98966.06;;;24.11;23.95
62655;BME280;48717;55.556;37.816;2023-04-25T11:33:49;98956.91;;;24.27;23.52
62655;BME280;48717;55.556;37.816;2023-04-25T11:36:16;98952.41;;;24.01;23.70
62655;BME280;48717;55.556;37.816;2023-04-25T11:38:44;98968.56;;;23.75;24.17
62655;BME280;48717;55.556;37.816;2023-04-25T11:41:11;98957.22;;;23.16;25.01
62655;BME280;48717;55.556;37.816;2023-04-25T11:43:38;98945.78;;;23.00;25.21
62655;BME280;48717;55.556;37.816;2023-04-25T11:46:09;98974.47;;;23.27;25.00
62655;BME280;48717;55.556;37.816;2023-04-25T11:48:45;98959.59;;;23.75;25.05
62655;BME280;48717;55.556;37.816;2023-04-25T11:51:14;98950.56;;;24.28;23.88
62655;BME280;48717;55.556;37.816;2023-04-25T11:53:42;98909.94;;;24.31;24.03
62655;BME280;48717;55.556;37.816;2023-04-25T11:56:10;98936.13;;;24.53;23.60
62655;BME280;48717;55.556;37.816;2023-04-25T11:59:01;98929.22;;;24.62;23.65
62655;BME280;48717;55.556;37.816;2023-04-25T12:01:39;98924.88;;;24.72;23.36
62655;BME280;48717;55.556;37.816;2023-04-25T12:06:43;98927.25;;;25.01;22.75
62655;BME280;48717;55.556;37.816;2023-04-25T12:09:12;98923.88;;;25.22;22.07
62655;BME280;48717;55.556;37.816;2023-04-25T12:11:44;98918.13;;;25.63;21.70
62655;BME280;48717;55.556;37.816;2023-04-25T12:14:12;98916.97;;;25.42;21.48
62655;BME280;48717;55.556;37.816;2023-04-25T12:16:48;98898.13;;;25.18;21.66
62655;BME280;48717;55.556;37.816;2023-04-25T12:19:17;98901.94;;;25.27;21.90
62655;BME280;48717;55.556;37.816;2023-04-25T12:21:44;98909.16;;;25.15;21.86
62655;BME280;48717;55.556;37.816;2023-04-25T12:24:25;98898.97;;;24.83;22.83
62655;BME280;48717;55.556;37.816;2023-04-25T12:27:03;98892.06;;;24.30;23.73
62655;BME280;48717;55.556;37.816;2023-04-25T12:29:32;98892.53;;;23.84;25.21
62655;BME280;48717;55.556;37.816;2023-04-25T12:32:14;98890.56;;;23.21;26.05
62655;BME280;48717;55.556;37.816;2023-04-25T12:34:42;98883.78;;;22.75;26.72
62655;BME280;48717;55.556;37.816;2023-04-25T12:37:09;98871.53;;;22.71;26.16
62655;BME280;48717;55.556;37.816;2023-04-25T12:39:37;98881.19;;;22.74;26.16
62655;BME280;48717;55.556;37.816;2023-04-25T12:42:04;98877.41;;;22.91;25.83
62655;BME280;48717;55.556;37.816;2023-04-25T12:44:35;98879.44;;;22.87;26.14
62655;BME280;48717;55.556;37.816;2023-04-25T12:47:02;98855.84;;;22.78;25.81
62655;BME280;48717;55.556;37.816;2023-04-25T12:49:30;98871.94;;;22.65;26.11
62655;BME280;48717;55.556;37.816;2023-04-25T12:51:57;98857.19;;;22.58;26.14
62655;BME280;48717;55.556;37.816;2023-04-25T12:54:24;98860.69;;;22.45;25.91
62655;BME280;48717;55.556;37.816;2023-04-25T12:56:52;98837.59;;;22.28;26.28
62655;BME280;48717;55.556;37.816;2023-04-25T12:59:20;98850.19;;;22.55;25.91
62655;BME280;48717;55.556;37.816;2023-04-25T13:01:48;98849.53;;;22.79;25.22
62655;BME280;48717;55.556;37.816;2023-04-25T13:04:15;98848.81;;;23.03;25.05
62655;BME280;48717;55.556;37.816;2023-04-25T13:06:43;98816.50;;;22.77;25.17
62655;BME280;48717;55.556;37.816;2023-04-25T13:09:10;98821.59;;;22.54;25.50
62655;BME280;48717;55.556;37.816;2023-04-25T13:11:39;98815.72;;;22.34;25.34
62655;BME280;48717;55.556;37.816;2023-04-25T13:14:08;98825.59;;;23.02;24.43
62655;BME280;48717;55.556;37.816;2023-04-25T13:16:35;98827.78;;;23.49;24.08
62655;BME280;48717;55.556;37.816;2023-04-25T13:19:02;98792.91;;;24.10;23.43